createdAt,value
2022-11-12T00:03:15.900Z,102775.34
2022-11-12T00:06:37.365Z,102773.47
2022-11-12T00:09:58.193Z,102764.16
2022-11-12T00:13:18.887Z,102774.13
2022-11-12T00:16:39.287Z,102777.88
2022-11-12T00:19:59.983Z,102771.88
2022-11-12T00:23:22.287Z,102785.88
2022-11-12T00:26:45.197Z,102764.28
2022-11-12T00:30:11.830Z,102764.06
2022-11-12T00:33:38.836Z,102759.88
2022-11-12T00:37:00.627Z,102770.78
2022-11-12T00:40:22.045Z,102795.06
2022-11-12T00:43:42.900Z,102772.63
2022-11-12T00:47:04.616Z,102788.19
2022-11-12T00:50:26.355Z,102795.19
2022-11-12T00:53:55.856Z,102791.72
2022-11-12T00:57:16.604Z,102774.31
2022-11-12T01:00:38.207Z,102804.16
2022-11-12T01:04:00.262Z,102797.28
2022-11-12T01:07:21.114Z,102808.81
2022-11-12T01:10:41.912Z,102784.16
2022-11-12T01:14:06.397Z,102792.63
2022-11-12T01:17:28.753Z,102783.69
2022-11-12T01:20:50.093Z,102809.81
2022-11-12T01:24:10.642Z,102791.50
2022-11-12T01:27:38.591Z,102806.44
2022-11-12T01:31:21.012Z,102806.19
2022-11-12T01:34:42.639Z,102803.38
2022-11-12T01:38:03.789Z,102802.66
2022-11-12T01:41:31.262Z,102800.81
2022-11-12T01:44:53.206Z,102797.75
2022-11-12T01:48:27.144Z,102790.19
2022-11-12T01:51:52.128Z,102803.53
2022-11-12T01:55:20.428Z,102791.50
2022-11-12T01:58:42.939Z,102779.63
2022-11-12T02:02:05.136Z,102777.31
2022-11-12T02:05:30.243Z,102763.44
2022-11-12T02:08:52.210Z,102795.66
2022-11-12T02:12:32.921Z,102778.16
2022-11-12T02:15:53.644Z,102789.50
2022-11-12T02:19:17.077Z,102782.22
2022-11-12T02:22:40.850Z,102787.72
2022-11-12T02:26:02.185Z,102805.22
2022-11-12T02:29:23.244Z,102790.03
2022-11-12T02:32:44.070Z,102781.06
2022-11-12T02:36:05.641Z,102798.72
2022-11-12T02:39:29.618Z,102789.78
2022-11-12T02:42:50.473Z,102790.88
2022-11-12T02:46:13.656Z,102815.41
2022-11-12T02:49:35.332Z,102804.91
2022-11-12T02:52:57.521Z,102796.88
2022-11-12T02:56:17.698Z,102794.94
2022-11-12T02:59:41.432Z,102800.19
2022-11-12T03:03:02.776Z,102791.81
2022-11-12T03:06:23.590Z,102785.81
2022-11-12T03:09:45.265Z,102801.06
2022-11-12T03:13:06.752Z,102805.47
2022-11-12T03:16:27.524Z,102797.91
2022-11-12T03:19:48.466Z,102796.97
2022-11-12T03:23:11.992Z,102800.41
2022-11-12T03:26:36.074Z,102806.84
2022-11-12T03:29:57.109Z,102813.72
2022-11-12T03:33:19.442Z,102808.06
2022-11-12T03:36:40.480Z,102822.69
2022-11-12T03:40:00.942Z,102799.50
2022-11-12T03:43:21.716Z,102815.91
2022-11-12T03:46:44.324Z,102804.22
2022-11-12T03:50:06.795Z,102776.41
2022-11-12T03:53:27.516Z,102806.69
2022-11-12T03:56:48.397Z,102807.91
2022-11-12T04:00:11.213Z,102823.56
2022-11-12T04:03:32.345Z,102795.25
2022-11-12T04:07:12.552Z,102799.97
2022-11-12T04:10:33.503Z,102825.47
2022-11-12T04:13:54.638Z,102831.63
2022-11-12T04:17:36.207Z,102796.78
2022-11-12T04:21:16.860Z,102813.06
2022-11-12T04:24:58.836Z,102837.19
2022-11-12T04:28:20.955Z,102830.41
2022-11-12T04:31:41.972Z,102834.22
2022-11-12T04:35:04.773Z,102835.34
2022-11-12T04:38:25.921Z,102817.16
2022-11-12T04:42:05.729Z,102821.56
2022-11-12T04:45:26.308Z,102828.56
2022-11-12T04:48:46.834Z,102820.69
2022-11-12T04:52:07.653Z,102837.03
2022-11-12T04:55:28.870Z,102831.84
2022-11-12T04:58:51.661Z,102807.69
2022-11-12T05:02:12.489Z,102829.81
2022-11-12T05:05:34.240Z,102814.66
2022-11-12T05:08:55.845Z,102822.53
2022-11-12T05:12:16.460Z,102840.44
2022-11-12T05:15:37.018Z,102829.63
2022-11-12T05:18:57.490Z,102833.66
2022-11-12T05:22:42.157Z,102824.69
2022-11-12T05:26:01.137Z,102787.34
2022-11-12T05:29:24.444Z,102803.91
2022-11-12T05:32:45.118Z,102831.25
2022-11-12T05:36:06.545Z,102816.78
2022-11-12T05:39:27.490Z,102839.94
2022-11-12T05:42:49.581Z,102819.34
2022-11-12T05:46:10.280Z,102849.75
2022-11-12T05:49:30.911Z,102861.19
2022-11-12T05:52:52.534Z,102856.53
2022-11-12T05:56:15.359Z,102844.25
2022-11-12T05:59:35.995Z,102865.25
2022-11-12T06:02:59.886Z,102856.41
2022-11-12T06:06:20.511Z,102874.94
2022-11-12T06:09:41.494Z,102859.94
2022-11-12T06:13:01.977Z,102883.75
2022-11-12T06:16:22.459Z,102866.94
2022-11-12T06:19:44.696Z,102873.31
2022-11-12T06:23:06.662Z,102885.44
2022-11-12T06:26:29.095Z,102871.69
2022-11-12T06:29:49.858Z,102895.13
2022-11-12T06:33:10.929Z,102883.97
2022-11-12T06:36:34.850Z,102898.91
2022-11-12T06:40:00.557Z,102897.44
2022-11-12T06:43:21.866Z,102898.28
2022-11-12T06:46:42.377Z,102881.13
2022-11-12T06:50:03.275Z,102884.66
2022-11-12T06:53:24.395Z,102874.47
2022-11-12T06:56:44.800Z,102881.53
2022-11-12T07:00:06.241Z,102869.78
2022-11-12T07:03:26.618Z,102873.69
2022-11-12T07:06:47.428Z,102855.06
2022-11-12T07:10:09.241Z,102886.09
2022-11-12T07:13:32.866Z,102894.81
2022-11-12T07:16:53.453Z,102893.00
2022-11-12T07:20:15.613Z,102905.81
2022-11-12T07:23:37.213Z,102890.25
2022-11-12T07:26:58.581Z,102889.31
2022-11-12T07:30:19.803Z,102901.59
2022-11-12T07:33:41.676Z,102895.59
2022-11-12T07:37:03.187Z,102899.56
2022-11-12T07:40:23.574Z,102900.00
2022-11-12T07:43:46.007Z,102906.28
2022-11-12T07:47:06.642Z,102898.69
2022-11-12T07:50:27.478Z,102907.75
2022-11-12T07:53:49.446Z,102910.56
2022-11-12T07:57:10.172Z,102886.41
2022-11-12T08:00:30.653Z,102901.59
2022-11-12T08:03:51.516Z,102905.53
2022-11-12T08:07:13.065Z,102893.16
2022-11-12T08:10:35.132Z,102881.63
2022-11-12T08:13:55.795Z,102895.88
2022-11-12T08:17:16.613Z,102885.47
2022-11-12T08:20:37.383Z,102889.63
2022-11-12T08:23:58.282Z,102889.38
2022-11-12T08:27:19.053Z,102887.81
2022-11-12T08:30:39.792Z,102894.94
2022-11-12T08:34:12.448Z,102896.91
2022-11-12T08:37:36.734Z,102893.22
2022-11-12T08:41:04.028Z,102905.22
2022-11-12T08:44:24.432Z,102898.59
2022-11-12T08:47:44.996Z,102899.75
2022-11-12T08:51:16.438Z,102887.53
2022-11-12T08:54:37.385Z,102886.44
2022-11-12T08:58:06.776Z,102913.34
2022-11-12T09:01:27.489Z,102911.56
2022-11-12T09:04:48.324Z,102900.44
2022-11-12T09:08:14.637Z,102917.47
2022-11-12T09:11:35.329Z,102896.00
2022-11-12T09:15:09.649Z,102887.44
2022-11-12T09:18:37.968Z,102918.97
2022-11-12T09:22:02.028Z,102903.75
2022-11-12T09:25:22.450Z,102903.84
2022-11-12T09:28:43.336Z,102896.84
2022-11-12T09:32:04.207Z,102904.59
2022-11-12T09:35:24.989Z,102905.19
2022-11-12T09:38:45.524Z,102888.00
2022-11-12T09:42:08.423Z,102896.72
2022-11-12T09:45:32.714Z,102899.16
2022-11-12T09:49:08.268Z,102895.72
2022-11-12T09:52:30.547Z,102898.75
2022-11-12T09:55:51.232Z,102895.59
2022-11-12T09:59:13.377Z,102908.88
2022-11-12T10:02:47.572Z,102901.75
2022-11-12T10:06:21.768Z,102898.56
2022-11-12T10:09:48.247Z,102897.56
2022-11-12T10:13:15.133Z,102896.31
2022-11-12T10:16:55.906Z,102889.41
2022-11-12T10:20:30.234Z,102892.38
2022-11-12T10:23:56.323Z,102880.19
2022-11-12T10:27:24.674Z,102878.78
2022-11-12T10:30:46.275Z,102854.84
2022-11-12T10:34:15.526Z,102861.44
2022-11-12T10:37:56.887Z,102854.78
2022-11-12T10:41:22.486Z,102856.09
2022-11-12T10:44:43.669Z,102832.97
2022-11-12T10:48:04.513Z,102840.53
2022-11-12T10:51:31.997Z,102835.38
2022-11-12T10:55:04.113Z,102833.69
2022-11-12T10:58:25.455Z,102834.53
2022-11-12T11:01:54.018Z,102823.69
2022-11-12T11:05:33.777Z,102825.97
2022-11-12T11:09:14.444Z,102813.69
2022-11-12T11:12:35.742Z,102826.53
2022-11-12T11:16:02.404Z,102807.28
2022-11-12T11:19:23.490Z,102823.81
2022-11-12T11:22:46.939Z,102823.81
2022-11-12T11:26:31.315Z,102816.13
2022-11-12T11:30:00.571Z,102816.41
2022-11-12T11:33:24.194Z,102838.94
2022-11-12T11:37:10.134Z,102831.97
2022-11-12T11:40:37.306Z,102807.41
2022-11-12T11:44:17.269Z,102820.25
2022-11-12T11:48:02.269Z,102823.41
2022-11-12T11:52:05.793Z,102822.66
2022-11-12T11:55:54.416Z,102808.38
2022-11-12T11:59:33.695Z,102814.66
2022-11-12T12:03:24.042Z,102819.94
2022-11-12T12:06:59.743Z,102821.34
2022-11-12T12:15:02.030Z,102815.78
2022-11-12T12:18:46.896Z,102814.34
2022-11-12T12:22:17.770Z,102792.97
2022-11-12T12:25:41.510Z,102803.75
2022-11-12T12:29:31.624Z,102807.47
2022-11-12T12:33:08.553Z,102805.31
2022-11-12T12:36:36.778Z,102812.00
2022-11-12T12:40:15.298Z,102803.03
2022-11-12T12:44:01.501Z,102807.88
2022-11-12T12:47:26.529Z,102795.19
2022-11-12T12:50:49.041Z,102797.47
2022-11-12T12:54:34.627Z,102797.34
2022-11-12T12:58:00.986Z,102784.94
2022-11-12T13:01:21.611Z,102790.50
2022-11-12T13:04:56.938Z,102774.13
2022-11-12T13:08:25.532Z,102773.13
2022-11-12T13:12:06.346Z,102775.66
2022-11-12T13:15:45.756Z,102764.69
2022-11-12T13:19:07.823Z,102762.13
2022-11-12T13:22:28.219Z,102753.84
2022-11-12T13:25:48.874Z,102751.00
2022-11-12T13:29:22.016Z,102749.00
2022-11-12T13:32:48.719Z,102741.19
2022-11-12T13:36:26.115Z,102739.88
2022-11-12T13:39:46.738Z,102730.06
2022-11-12T13:43:19.087Z,102750.16
2022-11-12T13:46:39.914Z,102743.31
2022-11-12T13:50:02.038Z,102748.47
2022-11-12T13:53:26.570Z,102745.88
2022-11-12T13:56:47.004Z,102736.03
2022-11-12T14:00:26.957Z,102741.88
2022-11-12T14:03:51.179Z,102735.06
2022-11-12T14:07:46.007Z,102740.03
2022-11-12T14:11:16.428Z,102752.28
2022-11-12T14:15:00.901Z,102737.72
2022-11-12T14:18:41.730Z,102741.03
2022-11-12T14:22:14.143Z,102742.59
2022-11-12T14:25:34.646Z,102737.88
2022-11-12T14:28:59.474Z,102736.56
2022-11-12T14:32:20.051Z,102729.44
2022-11-12T14:35:40.868Z,102735.97
2022-11-12T14:39:01.515Z,102735.22
2022-11-12T14:42:22.100Z,102715.97
2022-11-12T14:45:48.862Z,102715.13
2022-11-12T14:49:34.147Z,102720.66
2022-11-12T14:53:09.622Z,102720.81
2022-11-12T14:56:39.125Z,102720.72
2022-11-12T14:59:59.658Z,102710.75
2022-11-12T15:03:26.583Z,102712.56
2022-11-12T15:06:56.428Z,102723.38
2022-11-12T15:10:35.846Z,102725.81
2022-11-12T15:14:01.124Z,102721.06
2022-11-12T15:17:34.689Z,102723.13
2022-11-12T15:21:10.919Z,102721.88
2022-11-12T15:24:34.619Z,102716.03
2022-11-12T15:27:55.364Z,102719.91
2022-11-12T15:31:20.200Z,102723.47
2022-11-12T15:34:41.909Z,102728.19
2022-11-12T15:38:06.967Z,102736.31
2022-11-12T15:41:34.004Z,102742.56
2022-11-12T15:45:03.489Z,102728.72
2022-11-12T15:48:23.888Z,102750.81
2022-11-12T15:51:44.263Z,102749.38
2022-11-12T15:55:05.156Z,102746.25
2022-11-12T15:58:33.403Z,102749.38
2022-11-12T16:01:54.244Z,102746.53
2022-11-12T16:05:17.231Z,102751.50
2022-11-12T16:08:37.794Z,102733.22
2022-11-12T16:11:59.095Z,102733.66
2022-11-12T16:15:25.657Z,102732.38
2022-11-12T16:18:46.496Z,102732.06
2022-11-12T16:22:12.696Z,102730.47
2022-11-12T16:25:36.403Z,102730.69
2022-11-12T16:28:57.803Z,102735.25
2022-11-12T16:32:18.019Z,102689.28
2022-11-12T16:35:39.124Z,102722.09
2022-11-12T16:38:59.572Z,102737.59
2022-11-12T16:42:19.899Z,102723.94
2022-11-12T16:45:42.820Z,102726.19
2022-11-12T16:49:03.523Z,102716.72
2022-11-12T16:52:24.023Z,102728.53
2022-11-12T16:55:44.716Z,102727.38
2022-11-12T16:59:05.779Z,102719.78
2022-11-12T17:02:26.508Z,102729.56
2022-11-12T17:05:52.750Z,102716.69
2022-11-12T17:09:16.742Z,102728.50
2022-11-12T17:12:37.594Z,102730.47
2022-11-12T17:15:58.819Z,102710.63
2022-11-12T17:19:19.365Z,102724.34
2022-11-12T17:22:40.137Z,102710.16
2022-11-12T17:26:02.212Z,102710.56
2022-11-12T17:29:22.568Z,102725.13
2022-11-12T17:32:42.890Z,102735.91
2022-11-12T17:36:05.043Z,102726.50
2022-11-12T17:39:25.845Z,102724.41
2022-11-12T17:42:46.389Z,102713.06
2022-11-12T17:46:08.852Z,102720.69
2022-11-12T17:49:29.369Z,102692.16
2022-11-12T17:52:50.002Z,102705.38
2022-11-12T17:56:13.017Z,102718.88
2022-11-12T17:59:33.816Z,102709.31
2022-11-12T18:02:57.761Z,102710.69
2022-11-12T18:06:25.917Z,102723.19
2022-11-12T18:09:46.360Z,102716.38
2022-11-12T18:13:06.719Z,102716.97
2022-11-12T18:16:29.266Z,102712.56
2022-11-12T18:19:49.928Z,102705.13
2022-11-12T18:23:10.546Z,102692.09
2022-11-12T18:26:31.110Z,102678.78
2022-11-12T18:29:51.452Z,102721.34
2022-11-12T18:33:12.294Z,102715.53
2022-11-12T18:36:33.125Z,102723.53
2022-11-12T18:39:53.502Z,102716.94
2022-11-12T18:43:15.473Z,102716.31
2022-11-12T18:46:36.115Z,102706.66
2022-11-12T18:49:56.752Z,102711.06
2022-11-12T18:53:17.247Z,102712.91
2022-11-12T18:56:38.337Z,102726.66
2022-11-12T18:59:59.221Z,102710.50
2022-11-12T19:03:20.083Z,102723.53
2022-11-12T19:06:40.800Z,102721.53
2022-11-12T19:10:14.703Z,102716.88
2022-11-12T19:13:36.326Z,102723.34
2022-11-12T19:16:57.441Z,102721.75
2022-11-12T19:20:17.594Z,102715.44
2022-11-12T19:23:38.854Z,102720.09
2022-11-12T19:26:59.308Z,102723.88
2022-11-12T19:30:19.838Z,102721.13
2022-11-12T19:33:40.249Z,102714.16
2022-11-12T19:40:42.524Z,102727.47
2022-11-12T19:44:02.836Z,102726.63
2022-11-12T19:47:23.365Z,102727.38
2022-11-12T19:50:43.790Z,102733.13
2022-11-12T19:54:04.833Z,102731.56
2022-11-12T19:57:27.156Z,102721.13
2022-11-12T20:00:47.777Z,102730.34
2022-11-12T20:04:08.229Z,102737.44
2022-11-12T20:07:28.919Z,102703.25
2022-11-12T20:10:49.573Z,102726.16
2022-11-12T20:14:10.553Z,102735.34
2022-11-12T20:17:33.232Z,102726.91
2022-11-12T20:20:56.275Z,102732.56
2022-11-12T20:24:16.792Z,102738.19
2022-11-12T20:27:37.430Z,102729.84
2022-11-12T20:31:09.894Z,102722.84
2022-11-12T20:34:30.508Z,102737.06
2022-11-12T20:37:53.298Z,102739.03
2022-11-12T20:41:16.870Z,102732.19
2022-11-12T20:44:37.173Z,102726.28
2022-11-12T20:47:57.864Z,102738.56
2022-11-12T20:51:25.346Z,102740.75
2022-11-12T20:54:46.308Z,102726.53
2022-11-12T20:58:07.064Z,102722.09
2022-11-12T21:01:29.378Z,102749.56
2022-11-12T21:04:49.745Z,102748.31
2022-11-12T21:08:09.982Z,102734.94
2022-11-12T21:11:30.580Z,102747.59
2022-11-12T21:14:51.493Z,102750.66
2022-11-12T21:18:12.168Z,102753.59
2022-11-12T21:21:32.506Z,102741.94
2022-11-12T21:24:53.019Z,102736.00
2022-11-12T21:28:13.760Z,102751.53
2022-11-12T21:31:34.140Z,102738.25
2022-11-12T21:34:55.835Z,102734.69
2022-11-12T21:38:16.288Z,102754.69
2022-11-12T21:41:36.745Z,102751.03
2022-11-12T21:44:57.237Z,102735.22
2022-11-12T21:48:17.585Z,102748.34
2022-11-12T21:51:38.086Z,102737.25
2022-11-12T21:54:58.605Z,102750.00
2022-11-12T21:58:19.250Z,102739.69
2022-11-12T22:01:40.785Z,102733.81
2022-11-12T22:05:01.062Z,102740.31
2022-11-12T22:08:21.479Z,102692.47
2022-11-12T22:11:42.102Z,102727.44
2022-11-12T22:15:02.622Z,102744.09
2022-11-12T22:18:23.406Z,102740.78
2022-11-12T22:21:43.871Z,102732.19
2022-11-12T22:25:07.199Z,102730.94
2022-11-12T22:28:27.976Z,102717.59
2022-11-12T22:31:48.442Z,102730.50
2022-11-12T22:35:09.589Z,102753.19
2022-11-12T22:38:37.995Z,102740.31
2022-11-12T22:41:58.541Z,102746.31
2022-11-12T22:45:18.917Z,102746.06
2022-11-12T22:48:40.066Z,102753.31
2022-11-12T22:52:00.667Z,102752.44
2022-11-12T22:55:21.589Z,102760.75
2022-11-12T22:58:44.631Z,102758.16
2022-11-12T23:02:07.970Z,102756.66
2022-11-12T23:05:28.405Z,102746.47
2022-11-12T23:08:49.263Z,102751.97
2022-11-12T23:12:09.968Z,102761.66
2022-11-12T23:15:31.092Z,102759.09
2022-11-12T23:18:52.963Z,102751.34
2022-11-12T23:22:13.497Z,102758.19
2022-11-12T23:25:34.668Z,102767.72
2022-11-12T23:28:55.356Z,102761.47
2022-11-12T23:32:15.802Z,102741.13
2022-11-12T23:35:36.336Z,102752.38
2022-11-12T23:38:58.032Z,102761.22
2022-11-12T23:42:18.447Z,102771.13
2022-11-12T23:45:38.820Z,102762.25
2022-11-12T23:48:59.610Z,102764.28
2022-11-12T23:52:19.909Z,102762.09
2022-11-12T23:55:44.055Z,102768.69
2022-11-12T23:59:04.333Z,102764.16
